createdAt,value
2019-05-01T00:01:16.386Z,1.82
2019-05-01T00:04:02.865Z,2.47
2019-05-01T00:06:41.684Z,2.00
2019-05-01T00:09:12.176Z,2.67
2019-05-01T00:11:41.523Z,2.47
2019-05-01T00:14:11.354Z,2.37
2019-05-01T00:16:41.210Z,2.42
2019-05-01T00:19:10.614Z,2.30
2019-05-01T00:21:39.946Z,2.27
2019-05-01T00:24:09.265Z,2.47
2019-05-01T00:26:38.589Z,2.20
2019-05-01T00:29:08.174Z,2.22
2019-05-01T00:31:37.529Z,3.00
2019-05-01T00:34:06.862Z,2.58
2019-05-01T00:36:36.202Z,2.87
2019-05-01T00:39:07.790Z,2.77
2019-05-01T00:41:37.110Z,1.60
2019-05-01T00:44:06.442Z,2.08
2019-05-01T00:46:35.770Z,2.80
2019-05-01T00:49:05.106Z,3.37
2019-05-01T00:51:34.436Z,4.60
2019-05-01T00:54:03.758Z,6.05
2019-05-01T00:56:40.843Z,2.90
2019-05-01T00:59:31.959Z,2.90
2019-05-01T01:02:23.033Z,3.42
2019-05-01T01:04:52.438Z,3.00
2019-05-01T01:07:21.769Z,2.12
2019-05-01T01:09:51.091Z,4.30
2019-05-01T01:12:20.491Z,3.50
2019-05-01T01:14:49.886Z,2.95
2019-05-01T01:17:19.215Z,2.75
2019-05-01T01:19:48.547Z,2.72
2019-05-01T01:22:17.942Z,2.17
2019-05-01T01:24:47.368Z,2.58
2019-05-01T01:27:16.780Z,2.95
2019-05-01T01:29:46.146Z,2.75
2019-05-01T01:32:15.513Z,1.87
2019-05-01T01:34:44.826Z,3.30
2019-05-01T01:37:14.157Z,2.40
2019-05-01T01:39:43.591Z,2.35
2019-05-01T01:42:13.186Z,2.85
2019-05-01T01:45:04.322Z,2.20
2019-05-01T01:47:33.646Z,2.35
2019-05-01T01:50:03.083Z,2.62
2019-05-01T01:52:32.416Z,3.00
2019-05-01T01:55:02.078Z,3.50
2019-05-01T01:57:31.607Z,2.70
2019-05-01T02:00:01.238Z,2.47
2019-05-01T02:02:45.340Z,2.47
2019-05-01T02:05:28.174Z,2.40
2019-05-01T02:07:57.519Z,2.50
2019-05-01T02:10:27.231Z,2.85
2019-05-01T02:12:56.653Z,2.80
2019-05-01T02:15:26.055Z,2.62
2019-05-01T02:17:55.383Z,3.00
2019-05-01T02:20:24.709Z,2.60
2019-05-01T02:22:54.038Z,4.58
2019-05-01T02:25:23.677Z,3.15
2019-05-01T02:28:12.597Z,2.90
2019-05-01T02:30:45.699Z,2.77
2019-05-01T02:33:15.432Z,2.60
2019-05-01T02:35:45.355Z,3.20
2019-05-01T02:38:16.990Z,2.80
2019-05-01T02:40:55.402Z,3.83
2019-05-01T02:43:28.366Z,2.72
2019-05-01T02:45:59.995Z,2.45
2019-05-01T02:48:33.271Z,2.77
2019-05-01T02:51:04.195Z,3.35
2019-05-01T02:53:36.847Z,3.33
2019-05-01T02:56:21.939Z,2.87
2019-05-01T02:58:54.377Z,3.20
2019-05-01T03:01:24.707Z,3.55
2019-05-01T03:03:55.696Z,2.85
2019-05-01T03:06:26.011Z,2.70
2019-05-01T03:08:57.115Z,3.02
2019-05-01T03:11:27.303Z,2.70
2019-05-01T03:13:58.938Z,2.90
2019-05-01T03:16:28.554Z,2.70
2019-05-01T03:19:00.209Z,3.30
2019-05-01T03:21:51.784Z,3.40
2019-05-01T03:24:23.927Z,2.80
2019-05-01T03:26:53.971Z,2.83
2019-05-01T03:29:23.655Z,2.98
2019-05-01T03:32:15.202Z,3.12
2019-05-01T03:34:24.330Z,3.50
2019-05-01T03:36:53.931Z,3.42
2019-05-01T03:39:23.734Z,3.17
2019-05-01T03:41:53.436Z,3.15
2019-05-01T03:44:23.162Z,3.05
2019-05-01T03:46:52.863Z,3.33
2019-05-01T03:49:22.367Z,2.70
2019-05-01T03:51:51.764Z,2.90
2019-05-01T03:54:21.679Z,3.20
2019-05-01T03:56:51.080Z,2.47
2019-05-01T03:59:20.817Z,3.12
2019-05-01T04:02:31.667Z,3.30
2019-05-01T04:04:45.317Z,3.92
2019-05-01T04:07:14.711Z,3.00
2019-05-01T04:09:44.043Z,2.95
2019-05-01T04:12:13.645Z,3.20
2019-05-01T04:14:43.054Z,3.40
2019-05-01T04:17:18.987Z,3.47
2019-05-01T04:19:48.679Z,2.90
2019-05-01T04:22:18.135Z,2.98
2019-05-01T04:24:48.131Z,3.85
2019-05-01T04:27:22.836Z,2.75
2019-05-01T04:29:58.799Z,3.10
2019-05-01T04:32:31.204Z,3.35
2019-05-01T04:35:23.745Z,2.92
2019-05-01T04:37:57.918Z,2.95
2019-05-01T04:40:27.430Z,4.00
2019-05-01T04:42:57.055Z,3.20
2019-05-01T04:45:26.559Z,2.92
2019-05-01T04:47:56.284Z,2.65
2019-05-01T04:50:25.716Z,3.58
2019-05-01T04:52:55.315Z,3.08
2019-05-01T04:55:24.788Z,3.30
2019-05-01T04:57:54.447Z,3.17
2019-05-01T05:00:23.847Z,3.00
2019-05-01T05:03:04.857Z,3.37
2019-05-01T05:05:33.182Z,3.60
2019-05-01T05:08:03.199Z,3.55
2019-05-01T05:10:32.780Z,3.77
2019-05-01T05:13:22.497Z,3.20
2019-05-01T05:16:00.664Z,3.20
2019-05-01T05:18:30.328Z,4.00
2019-05-01T05:21:00.420Z,3.65
2019-05-01T05:23:30.219Z,3.15
2019-05-01T05:26:00.181Z,4.12
2019-05-01T05:28:31.453Z,4.00
2019-05-01T05:31:02.421Z,2.20
2019-05-01T05:33:33.871Z,3.02
2019-05-01T05:36:05.612Z,3.42
2019-05-01T05:38:44.459Z,3.02
2019-05-01T05:41:14.894Z,3.90
2019-05-01T05:43:44.758Z,3.67
2019-05-01T05:46:14.234Z,3.10
2019-05-01T05:48:43.823Z,4.20
2019-05-01T05:51:34.458Z,3.22
2019-05-01T05:54:13.030Z,3.55
2019-05-01T05:56:50.578Z,3.83
2019-05-01T05:59:25.174Z,3.50
2019-05-01T06:02:07.247Z,3.60
2019-05-01T06:04:48.349Z,2.92
2019-05-01T06:07:26.061Z,4.15
2019-05-01T06:10:03.093Z,4.05
2019-05-01T06:12:46.762Z,3.62
2019-05-01T06:15:30.802Z,3.12
2019-05-01T06:18:08.496Z,4.12
2019-05-01T06:21:02.179Z,4.50
2019-05-01T06:23:52.643Z,3.72
2019-05-01T06:26:32.061Z,4.62
2019-05-01T06:29:00.814Z,4.10
2019-05-01T06:31:32.873Z,3.95
2019-05-01T06:34:02.564Z,4.25
2019-05-01T06:36:31.983Z,3.85
2019-05-01T06:39:02.050Z,3.90
2019-05-01T06:41:42.472Z,3.17
2019-05-01T06:44:33.519Z,3.55
2019-05-01T06:47:21.262Z,4.00
2019-05-01T06:50:19.750Z,4.15
2019-05-01T06:52:49.703Z,3.80
2019-05-01T06:55:22.565Z,4.00
2019-05-01T06:57:50.490Z,3.65
2019-05-01T07:00:19.918Z,3.85
2019-05-01T07:02:50.611Z,4.60
2019-05-01T07:05:22.052Z,4.28
2019-05-01T07:07:54.975Z,4.30
2019-05-01T07:10:31.589Z,4.35
2019-05-01T07:12:59.818Z,4.20
2019-05-01T07:15:28.484Z,4.25
2019-05-01T07:17:58.330Z,4.40
2019-05-01T07:20:47.291Z,3.77
2019-05-01T07:23:18.792Z,4.90
2019-05-01T07:25:47.658Z,4.92
2019-05-01T07:28:16.374Z,4.17
2019-05-01T07:30:57.443Z,4.37
2019-05-01T07:33:26.249Z,4.75
2019-05-01T07:35:55.071Z,3.87
2019-05-01T07:38:23.805Z,5.10
2019-05-01T07:40:52.688Z,5.62
2019-05-01T07:43:39.207Z,3.55
2019-05-01T07:46:18.334Z,4.90
2019-05-01T07:48:46.349Z,4.05
2019-05-01T07:51:15.234Z,5.22
2019-05-01T07:53:44.355Z,4.30
2019-05-01T07:56:13.058Z,3.92
2019-05-01T07:58:41.772Z,4.65
2019-05-01T08:01:20.130Z,4.15
2019-05-01T08:03:57.619Z,4.58
2019-05-01T08:06:26.950Z,4.90
2019-05-01T08:08:56.287Z,5.25
2019-05-01T08:11:25.633Z,4.62
2019-05-01T08:14:01.516Z,3.98
2019-05-01T08:16:26.072Z,3.77
2019-05-01T08:19:05.939Z,4.75
2019-05-01T08:22:01.402Z,4.22
2019-05-01T08:24:28.228Z,4.65
2019-05-01T08:26:57.659Z,3.90
2019-05-01T08:29:44.418Z,4.75
2019-05-01T08:32:24.414Z,4.20
2019-05-01T08:34:55.896Z,4.17
2019-05-01T08:37:27.206Z,4.10
2019-05-01T08:39:56.678Z,4.35
2019-05-01T08:42:26.005Z,4.92
2019-05-01T08:45:20.482Z,4.87
2019-05-01T08:48:00.387Z,4.30
2019-05-01T08:50:28.098Z,5.37
2019-05-01T08:52:57.430Z,3.83
2019-05-01T08:55:26.796Z,4.00
2019-05-01T08:57:56.199Z,4.05
2019-05-01T09:00:25.526Z,4.30
2019-05-01T09:03:07.649Z,4.30
2019-05-01T09:05:29.071Z,4.30
2019-05-01T09:07:57.745Z,5.15
2019-05-01T09:10:27.167Z,4.10
2019-05-01T09:12:56.499Z,3.67
2019-05-01T09:15:25.831Z,4.67
2019-05-01T09:17:55.190Z,4.65
2019-05-01T09:20:24.523Z,4.17
2019-05-01T09:22:54.102Z,4.50
2019-05-01T09:25:30.976Z,4.60
2019-05-01T09:28:08.058Z,4.35
2019-05-01T09:30:44.917Z,4.12
2019-05-01T09:33:14.246Z,5.08
2019-05-01T09:35:45.414Z,4.90
2019-05-01T09:38:14.796Z,4.17
2019-05-01T09:40:44.316Z,4.85
2019-05-01T09:43:13.816Z,4.95
2019-05-01T09:45:43.223Z,4.20
2019-05-01T09:48:12.543Z,4.53
2019-05-01T09:50:46.322Z,4.40
2019-05-01T09:53:46.634Z,4.90
2019-05-01T09:56:21.707Z,4.83
2019-05-01T09:58:51.117Z,4.80
2019-05-01T10:01:24.128Z,4.87
2019-05-01T10:03:54.510Z,5.00
2019-05-01T10:06:22.636Z,5.10
2019-05-01T10:08:52.019Z,5.20
2019-05-01T10:11:21.428Z,5.15
2019-05-01T10:13:53.644Z,4.92
2019-05-01T10:16:21.924Z,5.40
2019-05-01T10:18:51.272Z,4.90
2019-05-01T10:21:22.437Z,5.10
2019-05-01T10:23:52.856Z,5.05
2019-05-01T10:26:24.274Z,5.10
2019-05-01T10:29:11.022Z,4.45
2019-05-01T10:32:21.514Z,4.87
2019-05-01T10:34:56.536Z,5.30
2019-05-01T10:37:28.303Z,4.85
2019-05-01T10:39:55.825Z,5.62
2019-05-01T10:42:25.230Z,4.37
2019-05-01T10:44:54.582Z,4.25
2019-05-01T10:47:23.987Z,4.33
2019-05-01T10:49:53.314Z,4.95
2019-05-01T10:52:22.646Z,5.30
2019-05-01T10:54:52.054Z,5.40
2019-05-01T10:57:21.395Z,4.25
2019-05-01T10:59:50.813Z,4.90
2019-05-01T11:02:20.155Z,4.92
2019-05-01T11:04:49.606Z,5.03
2019-05-01T11:07:18.950Z,5.75
2019-05-01T11:09:48.283Z,4.75
2019-05-01T11:12:17.610Z,4.60
2019-05-01T11:14:47.024Z,5.17
2019-05-01T11:17:16.355Z,4.92
2019-05-01T11:19:45.690Z,4.97
2019-05-01T11:22:15.011Z,5.70
2019-05-01T11:24:44.370Z,5.37
2019-05-01T11:27:13.740Z,5.08
2019-05-01T11:29:43.059Z,5.15
2019-05-01T11:32:22.238Z,5.65
2019-05-01T11:35:10.761Z,5.55
2019-05-01T11:37:48.815Z,4.92
2019-05-01T11:40:26.816Z,5.75
2019-05-01T11:42:56.154Z,5.67
2019-05-01T11:45:25.492Z,6.28
2019-05-01T11:47:54.903Z,7.05
2019-05-01T11:50:24.300Z,6.28
2019-05-01T11:52:53.658Z,6.47
2019-05-01T11:55:23.100Z,5.45
2019-05-01T11:57:52.499Z,6.95
2019-05-01T12:00:22.027Z,5.50
2019-05-01T12:02:51.347Z,5.15
2019-05-01T12:05:20.694Z,6.25
2019-05-01T12:07:50.020Z,5.70
2019-05-01T12:10:19.451Z,6.05
2019-05-01T12:12:48.782Z,5.03
2019-05-01T12:15:18.305Z,6.92
2019-05-01T12:17:50.831Z,6.45
2019-05-01T12:20:22.428Z,5.80
2019-05-01T12:22:51.803Z,5.60
2019-05-01T12:25:21.166Z,6.15
2019-05-01T12:27:50.598Z,6.30
2019-05-01T12:30:20.127Z,6.50
2019-05-01T12:32:49.480Z,5.28
2019-05-01T12:35:18.901Z,6.05
2019-05-01T12:37:48.577Z,5.47
2019-05-01T12:40:19.580Z,6.08
2019-05-01T12:42:49.143Z,6.17
2019-05-01T12:45:20.060Z,6.87
2019-05-01T12:47:57.094Z,5.80
2019-05-01T12:50:26.487Z,6.20
2019-05-01T12:53:20.661Z,6.53
2019-05-01T12:56:02.279Z,5.60
2019-05-01T12:58:31.657Z,6.15
2019-05-01T13:01:00.988Z,5.35
2019-05-01T13:03:30.358Z,5.85
2019-05-01T13:05:59.743Z,5.78
2019-05-01T13:08:29.099Z,6.53
2019-05-01T13:10:59.218Z,6.47
2019-05-01T13:13:28.567Z,6.65
2019-05-01T13:15:57.925Z,6.90
2019-05-01T13:18:27.251Z,7.05
2019-05-01T13:20:56.595Z,6.95
2019-05-01T13:23:25.990Z,7.08
2019-05-01T13:25:58.115Z,6.50
2019-05-01T13:28:55.238Z,6.85
2019-05-01T13:31:52.735Z,7.03
2019-05-01T13:34:22.058Z,7.42
2019-05-01T13:37:02.338Z,6.37
2019-05-01T13:39:22.446Z,6.40
2019-05-01T13:41:51.791Z,7.22
2019-05-01T13:44:21.117Z,6.67
2019-05-01T13:46:50.453Z,7.20
2019-05-01T13:49:19.829Z,6.92
2019-05-01T13:51:49.154Z,6.75
2019-05-01T13:54:18.502Z,6.62
2019-05-01T13:56:47.892Z,7.03
2019-05-01T13:59:17.407Z,6.95
2019-05-01T14:01:46.838Z,7.25
2019-05-01T14:04:16.680Z,7.70
2019-05-01T14:06:46.089Z,7.78
2019-05-01T14:09:17.089Z,7.25
2019-05-01T14:11:46.491Z,6.90
2019-05-01T14:14:15.850Z,7.25
2019-05-01T14:16:45.175Z,7.10
2019-05-01T14:19:14.518Z,7.53
2019-05-01T14:21:49.926Z,7.17
2019-05-01T14:24:27.283Z,7.58
2019-05-01T14:26:56.687Z,6.87
2019-05-01T14:29:26.014Z,7.30
2019-05-01T14:31:55.351Z,6.17
2019-05-01T14:34:24.688Z,6.22
2019-05-01T14:36:54.039Z,5.70
2019-05-01T14:39:23.362Z,6.00
2019-05-01T14:41:52.687Z,5.15
2019-05-01T14:44:22.019Z,6.92
2019-05-01T14:46:51.363Z,6.15
2019-05-01T14:49:20.735Z,5.00
2019-05-01T14:51:50.067Z,6.15
2019-05-01T14:54:19.391Z,5.95
2019-05-01T14:56:48.753Z,5.65
2019-05-01T14:59:18.150Z,6.50
2019-05-01T15:01:47.492Z,5.72
2019-05-01T15:04:16.878Z,5.53
2019-05-01T15:06:46.310Z,5.65
2019-05-01T15:09:15.672Z,6.40
2019-05-01T15:11:45.570Z,6.67
2019-05-01T15:14:39.522Z,6.12
2019-05-01T15:17:13.920Z,4.78
2019-05-01T15:19:47.670Z,5.08
2019-05-01T15:22:17.018Z,6.53
2019-05-01T15:24:46.351Z,5.62
2019-05-01T15:27:15.690Z,5.42
2019-05-01T15:29:45.016Z,4.42
2019-05-01T15:32:14.410Z,6.03
2019-05-01T15:34:43.807Z,4.75
2019-05-01T15:37:13.158Z,5.28
2019-05-01T15:39:47.489Z,5.47
2019-05-01T15:42:35.828Z,5.65
2019-05-01T15:45:05.946Z,5.60
2019-05-01T15:47:35.279Z,5.55
2019-05-01T15:50:05.490Z,6.35
2019-05-01T15:52:34.834Z,4.97
2019-05-01T15:55:04.414Z,4.37
2019-05-01T15:57:33.743Z,5.25
2019-05-01T16:00:03.471Z,5.33
2019-05-01T16:02:32.786Z,5.03
2019-05-01T16:05:02.124Z,4.33
2019-05-01T16:07:31.467Z,5.12
2019-05-01T16:10:00.820Z,5.53
2019-05-01T16:12:38.195Z,5.30
2019-05-01T16:15:29.711Z,4.60
2019-05-01T16:17:59.467Z,4.97
2019-05-01T16:20:28.811Z,4.90
2019-05-01T16:22:58.174Z,4.97
2019-05-01T16:25:27.500Z,4.62
2019-05-01T16:27:56.831Z,4.80
2019-05-01T16:30:27.174Z,4.87
2019-05-01T16:32:56.504Z,5.55
2019-05-01T16:35:25.843Z,4.28
2019-05-01T16:37:58.030Z,5.35
2019-05-01T16:40:52.181Z,5.25
2019-05-01T16:43:21.585Z,4.65
2019-05-01T16:45:50.988Z,4.42
2019-05-01T16:48:20.317Z,4.08
2019-05-01T16:50:49.649Z,5.45
2019-05-01T16:53:18.999Z,5.60
2019-05-01T16:55:48.334Z,5.10
2019-05-01T16:58:17.958Z,5.30
2019-05-01T17:01:03.786Z,5.30
2019-05-01T17:03:44.265Z,4.72
2019-05-01T17:06:38.642Z,11.80
2019-05-01T17:09:27.466Z,16.40
2019-05-01T17:11:56.877Z,16.70
2019-05-01T17:14:26.206Z,6.90
2019-05-01T17:16:55.675Z,7.10
2019-05-01T17:19:25.121Z,6.95
2019-05-01T17:21:54.531Z,7.62
2019-05-01T17:24:23.871Z,9.03
2019-05-01T17:26:53.195Z,6.20
2019-05-01T17:29:22.516Z,5.33
2019-05-01T17:31:51.835Z,6.00
2019-05-01T17:34:21.168Z,5.28
2019-05-01T17:36:50.526Z,5.40
2019-05-01T17:39:20.671Z,7.10
2019-05-01T17:41:50.011Z,6.50
2019-05-01T17:44:20.237Z,6.70
2019-05-01T17:46:50.382Z,5.60
2019-05-01T17:49:19.779Z,6.70
2019-05-01T17:51:49.114Z,4.87
2019-05-01T17:54:18.445Z,5.45
2019-05-01T17:56:48.492Z,6.10
2019-05-01T17:59:18.858Z,5.45
2019-05-01T18:02:11.499Z,5.58
2019-05-01T18:05:08.660Z,9.03
2019-05-01T18:07:38.047Z,6.70
2019-05-01T18:10:07.502Z,7.53
2019-05-01T18:12:36.937Z,6.62
2019-05-01T18:15:06.698Z,6.35
2019-05-01T18:17:36.136Z,9.50
2019-05-01T18:20:05.594Z,11.20
2019-05-01T18:22:50.211Z,14.15
2019-05-01T18:25:34.990Z,14.90
2019-05-01T18:28:11.471Z,7.90
2019-05-01T18:30:42.012Z,5.85
2019-05-01T18:33:11.598Z,5.83
2019-05-01T18:35:44.974Z,5.78
2019-05-01T18:38:21.507Z,6.25
2019-05-01T18:40:58.163Z,7.50
2019-05-01T18:43:32.287Z,5.85
2019-05-01T18:45:59.339Z,4.92
2019-05-01T18:48:28.674Z,5.97
2019-05-01T18:50:58.167Z,6.28
2019-05-01T18:53:27.521Z,6.55
2019-05-01T18:56:01.318Z,7.10
2019-05-01T18:58:28.035Z,7.37
2019-05-01T19:00:57.447Z,7.00
2019-05-01T19:03:26.910Z,6.70
2019-05-01T19:05:56.430Z,6.67
2019-05-01T19:08:25.836Z,6.42
2019-05-01T19:10:55.559Z,5.90
2019-05-01T19:13:25.189Z,7.00
2019-05-01T19:15:54.518Z,5.55
2019-05-01T19:18:23.841Z,7.20
2019-05-01T19:20:59.767Z,7.67
2019-05-01T19:23:27.980Z,8.20
2019-05-01T19:25:56.446Z,6.58
2019-05-01T19:28:27.059Z,7.58
2019-05-01T19:30:56.822Z,7.05
2019-05-01T19:33:26.259Z,8.18
2019-05-01T19:35:55.622Z,6.75
2019-05-01T19:38:29.514Z,7.75
2019-05-01T19:40:56.487Z,7.45
2019-05-01T19:43:25.837Z,6.12
2019-05-01T19:45:55.437Z,6.60
2019-05-01T19:48:24.850Z,6.70
2019-05-01T19:50:54.257Z,8.30
2019-05-01T19:53:23.671Z,7.33
2019-05-01T19:55:53.100Z,8.05
2019-05-01T19:58:22.456Z,7.50
2019-05-01T20:00:53.904Z,8.23
2019-05-01T20:03:23.411Z,8.38
2019-05-01T20:05:52.846Z,9.23
2019-05-01T20:08:22.274Z,8.10
2019-05-01T20:10:51.605Z,8.58
2019-05-01T20:13:21.018Z,9.45
2019-05-01T20:15:50.423Z,9.70
2019-05-01T20:18:19.830Z,8.33
2019-05-01T20:20:49.182Z,8.20
2019-05-01T20:23:18.510Z,10.23
2019-05-01T20:25:51.086Z,10.03
2019-05-01T20:28:20.038Z,10.55
2019-05-01T20:30:49.955Z,10.23
2019-05-01T20:33:19.369Z,16.95
2019-05-01T20:35:48.778Z,13.15
2019-05-01T20:38:18.106Z,13.95
2019-05-01T20:40:47.438Z,10.05
2019-05-01T20:43:16.776Z,10.98
2019-05-01T20:45:49.356Z,10.82
2019-05-01T20:48:18.666Z,11.43
2019-05-01T20:50:48.274Z,10.23
2019-05-01T20:53:17.614Z,9.60
2019-05-01T20:55:54.084Z,9.10
2019-05-01T20:58:23.413Z,9.10
2019-05-01T21:00:56.831Z,10.80
2019-05-01T21:03:26.181Z,9.58
2019-05-01T21:06:07.723Z,10.65
2019-05-01T21:08:59.938Z,10.10
2019-05-01T21:11:33.616Z,10.20
2019-05-01T21:14:16.955Z,11.55
2019-05-01T21:16:37.889Z,10.05
2019-05-01T21:19:05.173Z,10.15
2019-05-01T21:21:34.506Z,8.50
2019-05-01T21:24:03.957Z,8.70
2019-05-01T21:26:33.617Z,9.10
2019-05-01T21:29:04.077Z,10.65
2019-05-01T21:31:34.138Z,10.43
2019-05-01T21:34:04.216Z,8.25
2019-05-01T21:36:33.774Z,9.75
2019-05-01T21:39:03.206Z,11.28
2019-05-01T21:41:32.920Z,10.32
2019-05-01T21:44:03.129Z,9.43
2019-05-01T21:46:34.072Z,9.08
2019-05-01T21:49:03.540Z,9.50
2019-05-01T21:51:32.933Z,9.93
2019-05-01T21:54:03.271Z,8.75
2019-05-01T21:56:32.686Z,8.35
2019-05-01T21:59:06.803Z,7.33
2019-05-01T22:01:34.788Z,7.87
2019-05-01T22:04:04.386Z,7.65
2019-05-01T22:06:33.802Z,7.83
2019-05-01T22:09:04.731Z,8.30
2019-05-01T22:11:37.759Z,8.15
2019-05-01T22:14:07.016Z,7.58
2019-05-01T22:16:36.419Z,7.05
2019-05-01T22:19:17.808Z,8.13
2019-05-01T22:22:11.826Z,8.43
2019-05-01T22:25:12.290Z,7.25
2019-05-01T22:27:54.698Z,8.00
2019-05-01T22:30:34.766Z,9.08
2019-05-01T22:33:04.201Z,6.95
2019-05-01T22:35:52.874Z,8.35
2019-05-01T22:38:22.216Z,8.05
2019-05-01T22:41:06.655Z,8.73
2019-05-01T22:43:30.837Z,10.70
2019-05-01T22:46:01.732Z,8.73
2019-05-01T22:48:31.552Z,7.87
2019-05-01T22:51:07.075Z,11.00
2019-05-01T22:53:36.409Z,8.00
2019-05-01T22:56:05.829Z,9.20
2019-05-01T22:58:35.227Z,7.37
2019-05-01T23:01:05.137Z,8.23
2019-05-01T23:03:43.110Z,7.80
2019-05-01T23:06:12.643Z,8.83
2019-05-01T23:08:42.153Z,8.58
2019-05-01T23:11:19.893Z,7.83
2019-05-01T23:13:43.611Z,7.85
2019-05-01T23:16:13.889Z,7.30
2019-05-01T23:18:47.054Z,7.35
2019-05-01T23:21:15.959Z,7.42
2019-05-01T23:23:45.566Z,7.65
2019-05-01T23:26:16.728Z,6.97
2019-05-01T23:28:46.008Z,6.53
2019-05-01T23:31:15.338Z,7.45
2019-05-01T23:33:45.636Z,7.00
2019-05-01T23:36:23.242Z,7.55
2019-05-01T23:38:46.742Z,6.37
2019-05-01T23:41:16.083Z,6.35
2019-05-01T23:43:45.486Z,5.95
2019-05-01T23:46:14.826Z,6.62
2019-05-01T23:48:44.571Z,7.55
2019-05-01T23:51:13.971Z,6.78
2019-05-01T23:53:44.339Z,6.58
2019-05-01T23:56:14.348Z,7.25
2019-05-01T23:58:43.670Z,5.85
